createdAt,value
2023-03-22T00:00:21.613Z,10.20
2023-03-22T00:03:11.282Z,10.30
2023-03-22T00:05:59.409Z,10.30
2023-03-22T00:08:50.514Z,10.30
2023-03-22T00:11:38.574Z,10.30
2023-03-22T00:14:27.985Z,10.30
2023-03-22T00:17:16.118Z,10.20
2023-03-22T00:20:06.320Z,10.10
2023-03-22T00:22:54.386Z,10.10
2023-03-22T00:25:42.448Z,10.10
2023-03-22T00:28:30.713Z,10.10
2023-03-22T00:31:20.619Z,10.10
2023-03-22T00:34:08.845Z,10.10
2023-03-22T00:36:57.016Z,10.10
2023-03-22T00:39:45.189Z,10.00
2023-03-22T00:42:33.239Z,10.00
2023-03-22T00:45:21.323Z,10.00
2023-03-22T00:48:11.965Z,10.00
2023-03-22T00:51:00.162Z,10.00
2023-03-22T00:53:51.019Z,10.00
2023-03-22T00:56:39.113Z,10.00
2023-03-22T00:59:28.416Z,10.00
2023-03-22T01:02:17.548Z,10.10
2023-03-22T01:05:07.709Z,10.00
2023-03-22T01:07:56.916Z,10.00
2023-03-22T01:10:45.464Z,10.00
2023-03-22T01:13:33.557Z,10.00
2023-03-22T01:16:21.859Z,10.00
2023-03-22T01:19:10.016Z,9.90
2023-03-22T01:21:59.440Z,9.90
2023-03-22T01:24:47.499Z,9.80
2023-03-22T01:27:35.606Z,9.80
2023-03-22T01:30:23.678Z,9.80
2023-03-22T01:33:11.803Z,9.80
2023-03-22T01:35:59.878Z,9.80
2023-03-22T01:38:49.307Z,9.80
2023-03-22T01:41:37.723Z,9.80
2023-03-22T01:44:25.821Z,9.80
2023-03-22T01:47:13.858Z,9.80
2023-03-22T01:50:01.949Z,9.80
2023-03-22T01:52:50.612Z,9.80
2023-03-22T01:55:40.461Z,9.80
2023-03-22T01:58:28.644Z,9.80
2023-03-22T02:01:17.282Z,9.80
2023-03-22T02:04:07.985Z,9.80
2023-03-22T02:06:56.434Z,9.80
2023-03-22T02:09:45.746Z,9.80
2023-03-22T02:12:39.822Z,9.80
2023-03-22T02:15:33.061Z,9.80
2023-03-22T02:18:25.155Z,9.80
2023-03-22T02:21:22.194Z,9.80
2023-03-22T02:24:25.172Z,9.70
2023-03-22T02:27:41.068Z,9.70
2023-03-22T02:30:41.310Z,9.70
2023-03-22T02:33:57.455Z,9.80
2023-03-22T02:36:59.326Z,9.80
2023-03-22T02:39:50.763Z,9.80
2023-03-22T02:42:44.799Z,9.70
2023-03-22T02:45:35.127Z,9.70
2023-03-22T02:48:26.661Z,9.70
2023-03-22T02:51:18.591Z,9.80
2023-03-22T02:54:08.713Z,9.70
2023-03-22T02:57:01.109Z,9.70
2023-03-22T02:59:50.203Z,9.60
2023-03-22T03:02:39.270Z,9.60
2023-03-22T03:05:28.024Z,9.60
2023-03-22T03:08:17.945Z,9.60
2023-03-22T03:11:06.313Z,9.70
2023-03-22T03:13:56.305Z,9.70
2023-03-22T03:16:44.516Z,9.70
2023-03-22T03:19:36.018Z,9.70
2023-03-22T03:22:31.867Z,9.70
2023-03-22T03:25:24.670Z,9.70
2023-03-22T03:28:16.137Z,9.70
2023-03-22T03:31:09.064Z,9.70
2023-03-22T03:34:00.782Z,9.70
2023-03-22T03:36:51.254Z,9.70
2023-03-22T03:39:41.364Z,9.80
2023-03-22T03:42:30.086Z,9.80
2023-03-22T03:45:19.140Z,9.80
2023-03-22T03:48:10.020Z,9.80
2023-03-22T03:50:59.346Z,9.80
2023-03-22T03:53:47.428Z,9.80
2023-03-22T03:56:35.540Z,9.80
2023-03-22T03:59:24.098Z,9.80
2023-03-22T04:02:12.245Z,9.80
2023-03-22T04:05:01.745Z,9.80
2023-03-22T04:07:49.817Z,9.80
2023-03-22T04:10:38.193Z,9.80
2023-03-22T04:13:26.432Z,9.80
2023-03-22T04:16:14.504Z,9.80
2023-03-22T04:19:02.594Z,9.80
2023-03-22T04:21:53.224Z,9.80
2023-03-22T04:24:41.419Z,9.80
2023-03-22T04:27:29.551Z,9.80
2023-03-22T04:30:18.987Z,9.90
2023-03-22T04:33:07.870Z,9.90
2023-03-22T04:35:57.154Z,9.90
2023-03-22T04:38:46.858Z,9.80
2023-03-22T04:41:36.005Z,9.90
2023-03-22T04:44:24.051Z,9.90
2023-03-22T04:47:12.211Z,9.90
2023-03-22T04:50:00.299Z,9.90
2023-03-22T04:52:50.030Z,10.00
2023-03-22T04:55:39.530Z,9.90
2023-03-22T04:58:28.111Z,9.90
2023-03-22T05:01:17.281Z,9.90
2023-03-22T05:04:05.418Z,9.90
2023-03-22T05:06:53.582Z,9.90
2023-03-22T05:09:41.803Z,9.90
2023-03-22T05:12:31.235Z,9.90
2023-03-22T05:15:19.327Z,9.90
2023-03-22T05:18:07.375Z,9.90
2023-03-22T05:20:56.406Z,9.90
2023-03-22T05:23:44.978Z,9.80
2023-03-22T05:26:33.172Z,9.80
2023-03-22T05:29:22.682Z,9.90
2023-03-22T05:32:10.843Z,9.90
2023-03-22T05:35:03.569Z,9.90
2023-03-22T05:37:51.640Z,9.90
2023-03-22T05:40:39.997Z,9.90
2023-03-22T05:43:28.221Z,9.90
2023-03-22T05:46:17.687Z,9.90
2023-03-22T05:49:05.858Z,9.90
2023-03-22T05:51:53.948Z,9.90
2023-03-22T05:54:42.007Z,9.90
2023-03-22T05:57:30.205Z,9.90
2023-03-22T06:00:18.824Z,9.90
2023-03-22T06:03:08.908Z,9.90
2023-03-22T06:05:57.019Z,9.90
2023-03-22T06:08:45.104Z,9.80
2023-03-22T06:11:35.418Z,9.80
2023-03-22T06:14:23.493Z,9.80
2023-03-22T06:17:12.199Z,9.90
2023-03-22T06:20:01.652Z,9.90
2023-03-22T06:22:49.739Z,9.90
2023-03-22T06:25:37.839Z,9.90
2023-03-22T06:28:29.719Z,9.90
2023-03-22T06:31:17.892Z,10.00
2023-03-22T06:34:06.433Z,10.00
2023-03-22T06:36:55.864Z,10.00
2023-03-22T06:39:44.082Z,10.10
2023-03-22T06:42:32.238Z,10.20
2023-03-22T06:45:20.340Z,10.20
2023-03-22T06:48:08.494Z,10.20
2023-03-22T06:50:56.685Z,10.30
2023-03-22T06:53:46.418Z,10.30
2023-03-22T06:56:34.502Z,10.30
2023-03-22T06:59:22.603Z,10.40
2023-03-22T07:02:11.857Z,10.50
2023-03-22T07:04:59.911Z,10.70
2023-03-22T07:07:48.018Z,10.90
2023-03-22T07:10:37.828Z,11.10
2023-03-22T07:13:26.366Z,11.20
2023-03-22T07:16:14.508Z,11.30
2023-03-22T07:19:02.678Z,11.40
2023-03-22T07:21:50.772Z,11.40
2023-03-22T07:24:50.341Z,11.40
2023-03-22T07:27:43.409Z,11.50
2023-03-22T07:30:31.494Z,11.50
2023-03-22T07:33:19.552Z,11.60
2023-03-22T07:36:08.815Z,11.50
2023-03-22T07:38:56.951Z,11.60
2023-03-22T07:41:45.014Z,11.60
2023-03-22T07:44:34.588Z,11.70
2023-03-22T07:47:39.478Z,11.70
2023-03-22T07:50:27.847Z,11.70
2023-03-22T07:53:16.476Z,11.70
2023-03-22T07:56:04.741Z,11.70
2023-03-22T07:58:52.891Z,11.70
2023-03-22T08:01:42.441Z,11.60
2023-03-22T08:04:30.865Z,11.70
2023-03-22T08:07:19.492Z,11.70
2023-03-22T08:10:08.136Z,11.90
2023-03-22T08:12:56.222Z,12.10
2023-03-22T08:15:44.340Z,12.30
2023-03-22T08:18:33.810Z,12.50
2023-03-22T08:21:21.902Z,12.70
2023-03-22T08:24:10.359Z,12.90
2023-03-22T08:26:58.449Z,13.10
2023-03-22T08:29:46.663Z,13.20
2023-03-22T08:32:35.819Z,13.20
2023-03-22T08:35:25.519Z,13.20
2023-03-22T08:38:13.607Z,13.20
2023-03-22T08:41:01.644Z,13.10
2023-03-22T08:43:49.705Z,13.20
2023-03-22T08:46:37.803Z,13.20
2023-03-22T08:49:26.499Z,13.30
2023-03-22T08:52:15.948Z,13.50
2023-03-22T08:55:04.144Z,13.60
2023-03-22T08:57:52.294Z,13.70
2023-03-22T09:00:48.598Z,13.90
2023-03-22T09:03:37.309Z,14.00
2023-03-22T09:06:26.056Z,14.10
2023-03-22T09:09:15.873Z,14.00
2023-03-22T09:12:03.983Z,14.00
2023-03-22T09:14:52.115Z,14.00
2023-03-22T09:17:40.212Z,14.00
2023-03-22T09:20:28.287Z,14.10
2023-03-22T09:23:16.698Z,14.00
2023-03-22T09:26:07.428Z,14.00
2023-03-22T09:28:55.499Z,14.00
2023-03-22T09:31:44.651Z,14.00
2023-03-22T09:34:32.795Z,14.10
2023-03-22T09:37:21.180Z,14.20
2023-03-22T09:40:10.251Z,14.30
2023-03-22T09:43:01.603Z,14.40
2023-03-22T09:45:51.426Z,14.50
2023-03-22T09:48:40.732Z,14.60
2023-03-22T09:51:31.912Z,14.70
2023-03-22T09:54:21.706Z,14.70
2023-03-22T09:57:14.339Z,14.80
2023-03-22T10:00:12.589Z,14.80
2023-03-22T10:03:04.561Z,14.90
2023-03-22T10:05:54.200Z,15.10
2023-03-22T10:08:49.807Z,15.30
2023-03-22T10:11:44.402Z,15.20
2023-03-22T10:14:36.258Z,15.20
2023-03-22T10:17:27.430Z,15.30
2023-03-22T10:20:22.412Z,15.20
2023-03-22T10:23:13.657Z,15.30
2023-03-22T10:26:03.127Z,15.30
2023-03-22T10:28:55.836Z,15.40
2023-03-22T10:31:46.007Z,15.40
2023-03-22T10:34:36.114Z,15.50
2023-03-22T10:37:25.857Z,15.60
2023-03-22T10:40:18.476Z,15.60
2023-03-22T10:43:08.913Z,15.70
2023-03-22T10:45:57.845Z,15.70
2023-03-22T10:48:46.918Z,15.80
2023-03-22T10:51:38.264Z,15.80
2023-03-22T10:54:26.688Z,15.80
2023-03-22T10:57:14.745Z,15.70
2023-03-22T11:00:09.047Z,15.70
2023-03-22T11:03:00.100Z,15.90
2023-03-22T11:05:58.567Z,16.00
2023-03-22T11:08:48.853Z,16.20
2023-03-22T11:11:39.462Z,16.40
2023-03-22T11:14:29.285Z,16.50
2023-03-22T11:17:19.900Z,16.60
2023-03-22T11:20:09.904Z,16.60
2023-03-22T11:23:01.082Z,16.60
2023-03-22T11:25:51.756Z,16.60
2023-03-22T11:28:43.067Z,16.70
2023-03-22T11:31:48.452Z,17.00
2023-03-22T11:34:36.656Z,17.30
2023-03-22T11:37:24.834Z,17.50
2023-03-22T11:40:15.532Z,17.60
2023-03-22T11:43:20.443Z,17.90
2023-03-22T11:46:09.380Z,18.00
2023-03-22T11:49:00.952Z,18.00
2023-03-22T11:51:50.106Z,18.20
2023-03-22T11:54:39.257Z,18.40
2023-03-22T11:57:28.415Z,18.20
2023-03-22T12:00:21.583Z,18.00
2023-03-22T12:03:14.276Z,17.60
2023-03-22T12:06:04.425Z,17.30
2023-03-22T12:08:54.998Z,17.40
2023-03-22T12:11:46.258Z,17.70
2023-03-22T12:14:36.475Z,18.20
2023-03-22T12:17:30.085Z,18.80
2023-03-22T12:20:21.017Z,19.10
2023-03-22T12:23:19.740Z,19.20
2023-03-22T12:26:09.266Z,19.30
2023-03-22T12:28:59.808Z,19.50
2023-03-22T12:31:53.752Z,19.50
2023-03-22T12:34:45.789Z,19.30
2023-03-22T12:37:35.804Z,19.10
2023-03-22T12:40:25.336Z,19.10
2023-03-22T12:43:16.790Z,19.20
2023-03-22T12:46:06.476Z,19.50
2023-03-22T12:48:57.204Z,19.40
2023-03-22T12:51:47.665Z,19.40
2023-03-22T12:54:36.204Z,19.60
2023-03-22T12:57:24.305Z,19.70
2023-03-22T13:00:17.376Z,19.80
2023-03-22T13:03:10.376Z,19.90
2023-03-22T13:06:03.390Z,19.70
2023-03-22T13:09:15.693Z,19.70
2023-03-22T13:12:24.539Z,19.30
2023-03-22T13:15:40.404Z,19.20
2023-03-22T13:18:33.598Z,19.30
2023-03-22T13:21:22.809Z,19.10
2023-03-22T13:24:22.687Z,19.00
2023-03-22T13:27:12.010Z,18.90
2023-03-22T13:30:00.558Z,19.00
2023-03-22T13:32:56.300Z,19.30
2023-03-22T13:35:46.030Z,19.70
2023-03-22T13:38:35.589Z,19.90
2023-03-22T13:41:27.796Z,20.20
2023-03-22T13:44:27.152Z,20.10
2023-03-22T13:47:31.668Z,20.70
2023-03-22T13:50:23.179Z,21.30
2023-03-22T13:53:16.558Z,21.40
2023-03-22T13:56:05.508Z,21.90
2023-03-22T13:58:54.988Z,21.90
2023-03-22T14:01:47.705Z,21.30
2023-03-22T14:04:39.492Z,21.10
2023-03-22T14:07:29.755Z,21.60
2023-03-22T14:10:20.965Z,22.20
2023-03-22T14:13:15.476Z,23.00
2023-03-22T14:16:07.879Z,22.70
2023-03-22T14:18:57.301Z,22.20
2023-03-22T14:21:47.869Z,21.80
